createdAt,value
2023-05-21T00:01:16.645Z,7.65
2023-05-21T00:03:21.696Z,8.20
2023-05-21T00:07:33.380Z,8.90
2023-05-21T00:09:38.816Z,8.02
2023-05-21T00:11:43.846Z,8.77
2023-05-21T00:13:48.934Z,8.70
2023-05-21T00:18:01.511Z,8.38
2023-05-21T00:20:10.215Z,8.65
2023-05-21T00:22:16.198Z,8.40
2023-05-21T00:24:21.146Z,8.27
2023-05-21T00:26:27.046Z,8.63
2023-05-21T00:28:35.198Z,7.05
2023-05-21T00:30:40.347Z,7.90
2023-05-21T00:34:52.783Z,8.38
2023-05-21T00:36:58.569Z,8.75
2023-05-21T00:39:04.775Z,9.07
2023-05-21T00:41:09.713Z,7.88
2023-05-21T00:43:15.655Z,8.27
2023-05-21T00:45:20.667Z,8.38
2023-05-21T00:47:27.635Z,8.73
2023-05-21T00:49:33.550Z,7.60
2023-05-21T00:51:41.251Z,8.07
2023-05-21T00:53:48.346Z,7.97
2023-05-21T00:55:53.800Z,7.90
2023-05-21T00:58:00.031Z,8.48
2023-05-21T01:00:07.354Z,8.20
2023-05-21T01:02:14.494Z,7.85
2023-05-21T01:04:20.602Z,7.72
2023-05-21T01:06:27.880Z,8.35
2023-05-21T01:08:36.717Z,7.88
2023-05-21T01:10:41.834Z,8.40
2023-05-21T01:14:55.908Z,8.73
2023-05-21T01:17:03.108Z,8.32
2023-05-21T01:19:11.209Z,8.57
2023-05-21T01:21:17.596Z,8.45
2023-05-21T01:23:25.226Z,8.70
2023-05-21T01:25:34.900Z,8.82
2023-05-21T01:27:40.215Z,8.20
2023-05-21T01:29:45.211Z,8.75
2023-05-21T01:32:09.998Z,7.78
2023-05-21T01:34:18.126Z,8.95
2023-05-21T01:36:27.892Z,8.18
2023-05-21T01:38:41.057Z,8.55
2023-05-21T01:40:50.555Z,9.00
2023-05-21T01:42:56.268Z,8.23
2023-05-21T01:45:02.903Z,8.85
2023-05-21T01:47:08.719Z,7.65
2023-05-21T01:49:14.705Z,9.45
2023-05-21T01:51:20.043Z,8.48
2023-05-21T01:53:25.171Z,8.80
2023-05-21T01:57:37.779Z,8.73
2023-05-21T02:01:49.543Z,8.80
2023-05-21T02:03:54.753Z,7.90
2023-05-21T02:08:05.638Z,9.18
2023-05-21T02:10:11.760Z,9.05
2023-05-21T02:12:19.423Z,8.95
2023-05-21T02:14:25.481Z,9.02
2023-05-21T02:16:30.578Z,9.00
2023-05-21T02:20:42.041Z,8.65
2023-05-21T02:22:48.331Z,9.18
2023-05-21T02:24:53.510Z,8.13
2023-05-21T02:27:03.676Z,9.20
2023-05-21T02:29:11.566Z,8.60
2023-05-21T02:31:16.616Z,8.52
2023-05-21T02:35:27.458Z,8.40
2023-05-21T02:37:34.088Z,8.52
2023-05-21T02:39:52.521Z,9.35
2023-05-21T02:41:57.475Z,8.77
2023-05-21T02:44:02.507Z,9.15
2023-05-21T02:46:11.299Z,9.05
2023-05-21T02:48:16.353Z,9.50
2023-05-21T02:50:23.012Z,8.75
2023-05-21T02:52:33.734Z,9.45
2023-05-21T02:54:38.687Z,9.40
2023-05-21T02:56:43.694Z,9.98
2023-05-21T02:58:48.777Z,9.60
2023-05-21T03:00:54.066Z,10.07
2023-05-21T03:03:02.106Z,9.05
2023-05-21T03:05:08.025Z,9.55
2023-05-21T03:07:14.221Z,8.93
2023-05-21T03:09:19.342Z,10.23
2023-05-21T03:13:28.972Z,9.35
2023-05-21T03:15:34.076Z,9.75
2023-05-21T03:19:49.259Z,10.18
2023-05-21T03:21:56.724Z,8.93
2023-05-21T03:24:02.256Z,8.60
2023-05-21T03:26:07.587Z,9.60
2023-05-21T03:28:12.883Z,9.40
2023-05-21T03:30:22.283Z,9.93
2023-05-21T03:32:49.950Z,9.00
2023-05-21T03:34:57.540Z,9.35
2023-05-21T03:37:02.559Z,9.40
2023-05-21T03:39:08.548Z,9.05
2023-05-21T03:43:21.147Z,9.70
2023-05-21T03:45:26.336Z,10.23
2023-05-21T03:47:51.854Z,10.18
2023-05-21T03:49:59.561Z,9.82
2023-05-21T03:52:05.418Z,9.82
2023-05-21T03:54:10.826Z,9.63
2023-05-21T03:56:16.213Z,9.80
2023-05-21T03:58:21.276Z,8.95
2023-05-21T04:00:26.457Z,9.57
2023-05-21T04:02:31.580Z,9.88
2023-05-21T04:04:37.365Z,9.43
2023-05-21T04:06:45.403Z,10.15
2023-05-21T04:08:51.614Z,10.75
2023-05-21T04:10:56.629Z,9.93
2023-05-21T04:15:07.354Z,9.88
2023-05-21T04:17:13.513Z,10.52
2023-05-21T04:19:19.328Z,10.77
2023-05-21T04:21:24.823Z,9.82
2023-05-21T04:23:32.375Z,10.25
2023-05-21T04:25:39.128Z,10.73
2023-05-21T04:27:47.940Z,10.07
2023-05-21T04:29:54.996Z,10.15
2023-05-21T04:32:02.280Z,10.77
2023-05-21T04:34:07.334Z,10.95
2023-05-21T04:38:19.941Z,10.30
2023-05-21T04:40:27.576Z,10.70
2023-05-21T04:42:33.308Z,10.93
2023-05-21T04:44:39.063Z,10.90
2023-05-21T04:46:46.315Z,10.25
2023-05-21T04:48:52.874Z,11.18
2023-05-21T04:50:58.408Z,10.82
2023-05-21T04:53:03.562Z,11.15
2023-05-21T04:55:09.696Z,9.95
2023-05-21T04:57:19.015Z,10.13
2023-05-21T04:59:24.022Z,10.48
2023-05-21T05:01:35.693Z,10.88
2023-05-21T05:03:40.901Z,9.88
2023-05-21T05:05:45.954Z,10.25
2023-05-21T05:07:51.035Z,10.82
2023-05-21T05:12:01.749Z,11.15
2023-05-21T05:14:10.086Z,10.30
2023-05-21T05:16:25.303Z,11.02
2023-05-21T05:18:34.295Z,9.90
2023-05-21T05:20:39.668Z,10.13
2023-05-21T05:22:44.661Z,10.82
2023-05-21T05:24:51.268Z,11.18
2023-05-21T05:26:57.045Z,10.82
2023-05-21T05:29:02.085Z,10.93
2023-05-21T05:33:14.730Z,11.27
2023-05-21T05:37:24.580Z,11.25
2023-05-21T05:41:34.625Z,10.77
2023-05-21T05:45:44.766Z,10.52
2023-05-21T05:47:55.374Z,10.65
2023-05-21T05:50:00.431Z,9.60
2023-05-21T05:54:10.318Z,10.88
2023-05-21T05:56:17.839Z,11.20
2023-05-21T05:58:23.120Z,10.18
2023-05-21T06:00:42.133Z,10.95
2023-05-21T06:02:48.493Z,10.73
2023-05-21T06:04:56.396Z,10.68
2023-05-21T06:07:01.522Z,10.00
2023-05-21T06:09:06.678Z,10.85
2023-05-21T06:11:12.477Z,10.82
2023-05-21T06:13:17.727Z,9.90
2023-05-21T06:15:23.732Z,10.00
2023-05-21T06:17:32.008Z,10.63
2023-05-21T06:19:46.406Z,10.70
2023-05-21T06:21:55.299Z,10.40
2023-05-21T06:24:00.302Z,9.48
2023-05-21T06:26:07.073Z,9.65
2023-05-21T06:28:12.713Z,9.60
2023-05-21T06:32:23.334Z,10.32
2023-05-21T06:34:28.912Z,9.43
2023-05-21T06:36:33.899Z,10.45
2023-05-21T06:38:42.929Z,10.30
2023-05-21T06:40:48.147Z,10.18
2023-05-21T06:43:05.083Z,10.02
2023-05-21T06:45:36.290Z,9.85
2023-05-21T06:47:52.344Z,12.93
2023-05-21T06:52:02.386Z,10.23
2023-05-21T06:54:10.425Z,11.50
2023-05-21T06:56:20.134Z,10.15
2023-05-21T06:58:25.769Z,10.23
2023-05-21T07:00:30.859Z,9.68
2023-05-21T07:02:39.573Z,9.98
2023-05-21T07:04:44.714Z,9.82
2023-05-21T07:06:50.106Z,10.45
2023-05-21T07:08:55.111Z,9.40
2023-05-21T07:11:03.131Z,9.98
2023-05-21T07:13:08.693Z,9.63
2023-05-21T07:15:14.568Z,9.25
2023-05-21T07:17:19.668Z,8.32
2023-05-21T07:19:24.893Z,10.50
2023-05-21T07:23:34.979Z,9.35
2023-05-21T07:25:40.749Z,9.13
2023-05-21T07:27:48.458Z,8.50
2023-05-21T07:29:53.408Z,9.30
2023-05-21T07:32:00.989Z,8.18
2023-05-21T07:34:06.357Z,9.07
2023-05-21T07:36:11.608Z,8.73
2023-05-21T07:40:21.404Z,8.73
2023-05-21T07:42:26.517Z,8.52
2023-05-21T07:44:36.155Z,9.35
2023-05-21T07:46:44.076Z,8.63
2023-05-21T07:48:50.554Z,8.23
2023-05-21T07:53:04.281Z,8.00
2023-05-21T07:55:11.611Z,8.55
2023-05-21T07:57:18.608Z,9.07
2023-05-21T07:59:37.856Z,9.18
2023-05-21T08:01:43.802Z,8.35
2023-05-21T08:03:59.538Z,9.20
2023-05-21T08:06:04.700Z,8.23
2023-05-21T08:08:10.680Z,9.38
2023-05-21T08:10:19.202Z,9.80
2023-05-21T08:12:25.703Z,8.20
2023-05-21T08:16:38.209Z,8.10
2023-05-21T08:18:43.288Z,8.77
2023-05-21T08:20:48.590Z,8.25
2023-05-21T08:22:57.064Z,8.60
2023-05-21T08:25:02.637Z,8.77
2023-05-21T08:27:08.486Z,8.60
2023-05-21T08:29:13.632Z,8.57
2023-05-21T08:31:21.567Z,8.90
2023-05-21T08:33:32.309Z,8.50
2023-05-21T08:35:38.090Z,9.48
2023-05-21T08:37:54.570Z,8.73
2023-05-21T08:40:17.969Z,8.82
2023-05-21T08:42:36.868Z,8.65
2023-05-21T08:44:51.067Z,8.50
2023-05-21T08:47:00.181Z,7.40
2023-05-21T08:49:11.711Z,7.85
2023-05-21T08:51:16.862Z,7.95
2023-05-21T08:53:29.091Z,8.07
2023-05-21T08:55:38.899Z,7.78
2023-05-21T08:57:46.969Z,8.05
2023-05-21T08:59:54.967Z,7.93
2023-05-21T09:02:04.946Z,8.60
2023-05-21T09:04:21.368Z,6.90
2023-05-21T09:06:34.135Z,7.20
2023-05-21T09:08:47.018Z,7.97
2023-05-21T09:11:09.363Z,7.43
2023-05-21T09:13:24.289Z,6.75
2023-05-21T09:15:29.989Z,7.47
2023-05-21T09:17:36.077Z,7.32
2023-05-21T09:20:17.677Z,7.15
2023-05-21T09:22:28.892Z,6.15
2023-05-21T09:24:36.292Z,7.22
2023-05-21T09:26:45.740Z,7.60
2023-05-21T09:28:51.615Z,7.57
2023-05-21T09:30:57.668Z,7.13
2023-05-21T09:33:03.662Z,7.03
2023-05-21T09:35:11.076Z,6.80
2023-05-21T09:37:27.167Z,7.75
2023-05-21T09:39:33.653Z,6.72
2023-05-21T09:41:41.363Z,7.35
2023-05-21T09:43:47.519Z,6.68
2023-05-21T09:45:55.853Z,7.28
2023-05-21T09:48:04.576Z,7.05
2023-05-21T09:50:12.133Z,7.55
2023-05-21T09:52:26.541Z,7.10
2023-05-21T09:54:35.569Z,7.75
2023-05-21T09:56:40.649Z,6.88
2023-05-21T09:58:46.348Z,6.47
2023-05-21T10:00:51.406Z,6.65
2023-05-21T10:02:58.700Z,6.70
2023-05-21T10:05:04.332Z,7.03
2023-05-21T10:07:10.108Z,6.97
2023-05-21T10:09:21.744Z,7.75
2023-05-21T10:11:29.436Z,7.00
2023-05-21T10:13:37.202Z,7.47
2023-05-21T10:15:47.810Z,7.63
2023-05-21T10:17:59.756Z,7.45
2023-05-21T10:20:05.679Z,7.13
2023-05-21T10:22:21.739Z,7.47
2023-05-21T10:24:30.293Z,6.78
2023-05-21T10:26:38.922Z,6.57
2023-05-21T10:28:44.290Z,7.95
2023-05-21T10:30:50.487Z,7.60
2023-05-21T10:33:06.247Z,8.02
2023-05-21T10:35:12.951Z,6.40
2023-05-21T10:37:19.844Z,7.60
2023-05-21T10:39:27.025Z,8.63
2023-05-21T10:41:44.630Z,9.35
2023-05-21T10:43:56.637Z,8.52
2023-05-21T10:46:39.506Z,8.00
2023-05-21T10:49:02.052Z,7.75
2023-05-21T10:51:26.502Z,8.35
2023-05-21T10:53:42.088Z,8.10
2023-05-21T10:56:03.945Z,7.55
2023-05-21T10:59:00.598Z,7.80
2023-05-21T11:01:14.595Z,7.80
2023-05-21T11:06:06.683Z,8.07
2023-05-21T11:08:30.421Z,8.15
2023-05-21T11:10:41.085Z,7.75
2023-05-21T11:13:14.418Z,8.45
2023-05-21T11:18:05.238Z,8.10
2023-05-21T11:20:13.751Z,7.18
2023-05-21T11:22:40.704Z,7.97
2023-05-21T11:24:46.886Z,6.75
2023-05-21T11:27:08.889Z,6.70
2023-05-21T11:29:19.180Z,7.18
2023-05-21T11:31:35.712Z,6.60
2023-05-21T11:33:46.387Z,7.45
2023-05-21T11:36:02.172Z,7.60
2023-05-21T11:40:44.106Z,6.95
2023-05-21T11:43:08.519Z,6.50
2023-05-21T11:45:55.355Z,6.22
2023-05-21T11:54:03.084Z,5.55
2023-05-21T11:56:24.662Z,5.68
2023-05-21T11:58:33.961Z,5.72
2023-05-21T12:00:42.657Z,5.68
2023-05-21T12:02:49.335Z,5.65
2023-05-21T12:04:54.820Z,5.13
2023-05-21T12:07:02.519Z,5.75
2023-05-21T12:09:07.864Z,6.40
2023-05-21T12:11:13.065Z,5.82
2023-05-21T12:13:18.325Z,5.72
2023-05-21T12:15:41.627Z,4.95
2023-05-21T12:17:46.860Z,4.70
2023-05-21T12:19:57.473Z,6.03
2023-05-21T12:22:06.520Z,5.60
2023-05-21T12:24:11.423Z,5.47
2023-05-21T12:26:17.627Z,6.00
2023-05-21T12:28:24.915Z,5.25
2023-05-21T12:30:31.272Z,5.47
2023-05-21T12:32:38.346Z,5.93
2023-05-21T12:34:46.415Z,5.55
2023-05-21T12:36:53.205Z,5.22
2023-05-21T12:39:01.088Z,5.72
2023-05-21T12:41:07.774Z,5.57
2023-05-21T12:43:12.960Z,5.50
2023-05-21T12:45:19.103Z,5.60
2023-05-21T12:47:26.854Z,5.70
2023-05-21T12:49:39.593Z,5.25
2023-05-21T12:51:44.540Z,5.10
2023-05-21T12:55:58.125Z,5.00
2023-05-21T12:58:05.368Z,4.82
2023-05-21T13:00:12.062Z,5.05
2023-05-21T13:02:25.995Z,5.00
2023-05-21T13:04:31.249Z,5.40
2023-05-21T13:06:45.130Z,4.70
2023-05-21T13:08:50.059Z,5.47
2023-05-21T13:13:02.443Z,5.20
2023-05-21T13:15:09.070Z,5.20
2023-05-21T13:17:14.132Z,5.80
2023-05-21T13:19:19.101Z,5.97
2023-05-21T13:21:24.211Z,5.43
2023-05-21T13:23:29.209Z,5.75
2023-05-21T13:27:41.813Z,5.40
2023-05-21T13:29:46.752Z,5.78
2023-05-21T13:33:56.459Z,5.53
2023-05-21T13:36:01.616Z,5.30
2023-05-21T13:38:06.672Z,5.63
2023-05-21T13:40:15.297Z,5.07
2023-05-21T13:42:21.338Z,5.30
2023-05-21T13:44:28.950Z,5.53
2023-05-21T13:46:33.985Z,5.57
2023-05-21T13:48:39.012Z,5.57
2023-05-21T13:50:43.974Z,5.13
2023-05-21T13:52:49.153Z,5.18
2023-05-21T13:54:54.508Z,5.03
2023-05-21T13:57:01.333Z,4.97
2023-05-21T13:59:06.247Z,5.00
2023-05-21T14:03:41.433Z,4.47
2023-05-21T14:05:48.563Z,5.32
2023-05-21T14:07:53.566Z,4.75
2023-05-21T14:10:01.766Z,5.00
2023-05-21T14:12:07.775Z,4.63
2023-05-21T14:14:14.313Z,4.88
2023-05-21T14:16:23.253Z,4.55
2023-05-21T14:18:28.321Z,4.60
2023-05-21T14:20:33.439Z,4.47
2023-05-21T14:22:38.372Z,4.38
2023-05-21T14:24:43.311Z,4.65
2023-05-21T14:26:48.387Z,4.75
2023-05-21T14:28:53.320Z,5.50
2023-05-21T14:31:01.286Z,4.57
2023-05-21T14:33:09.606Z,4.60
2023-05-21T14:35:14.607Z,4.82
2023-05-21T14:37:19.862Z,4.68
2023-05-21T14:39:25.194Z,4.63
2023-05-21T14:41:30.565Z,5.00
2023-05-21T14:43:38.528Z,4.97
2023-05-21T14:45:43.547Z,4.63
2023-05-21T14:47:49.189Z,4.22
2023-05-21T14:49:56.825Z,5.15
2023-05-21T14:52:01.862Z,5.20
2023-05-21T14:54:06.987Z,5.38
2023-05-21T14:56:12.184Z,5.05
2023-05-21T14:58:17.312Z,4.47
2023-05-21T15:00:22.720Z,5.22
2023-05-21T15:02:28.161Z,5.60
2023-05-21T15:04:33.313Z,5.50
2023-05-21T15:06:41.028Z,4.50
2023-05-21T15:08:46.197Z,5.28
2023-05-21T15:10:51.248Z,5.00
2023-05-21T15:12:56.677Z,5.00
2023-05-21T15:15:04.434Z,4.90
2023-05-21T15:19:59.306Z,5.15
2023-05-21T15:22:07.341Z,4.65
2023-05-21T15:24:12.531Z,4.90
2023-05-21T15:26:17.565Z,5.47
2023-05-21T15:28:23.264Z,4.45
2023-05-21T15:30:28.451Z,4.78
2023-05-21T15:32:33.727Z,4.30
2023-05-21T15:34:41.606Z,4.80
2023-05-21T15:36:46.739Z,5.70
2023-05-21T15:39:01.816Z,4.97
2023-05-21T15:41:06.762Z,4.65
2023-05-21T15:43:12.011Z,5.07
2023-05-21T15:45:16.963Z,4.60
2023-05-21T15:47:22.000Z,4.57
2023-05-21T15:49:26.978Z,4.53
2023-05-21T15:51:31.939Z,4.53
2023-05-21T15:53:36.993Z,5.25
2023-05-21T15:55:44.964Z,5.30
2023-05-21T15:57:49.872Z,5.47
2023-05-21T16:00:14.803Z,8.13
2023-05-21T16:02:20.013Z,29.27
2023-05-21T16:04:25.056Z,24.17
2023-05-21T16:06:30.234Z,13.80
2023-05-21T16:08:35.456Z,12.57
2023-05-21T16:10:40.552Z,8.75
2023-05-21T16:12:48.221Z,14.43
2023-05-21T16:14:53.194Z,15.15
2023-05-21T16:17:01.012Z,15.88
2023-05-21T16:19:06.007Z,8.57
2023-05-21T16:21:11.232Z,11.73
2023-05-21T16:23:16.133Z,8.48
2023-05-21T16:25:21.303Z,10.20
2023-05-21T16:27:26.368Z,8.55
2023-05-21T16:29:33.956Z,7.38
2023-05-21T16:31:40.537Z,7.03
2023-05-21T16:33:45.549Z,7.20
2023-05-21T16:35:50.738Z,6.45
2023-05-21T16:37:55.880Z,6.50
2023-05-21T16:40:00.822Z,6.65
2023-05-21T16:42:05.864Z,6.80
2023-05-21T16:44:10.973Z,6.43
2023-05-21T16:46:18.656Z,5.97
2023-05-21T16:48:23.595Z,5.78
2023-05-21T16:52:33.377Z,6.00
2023-05-21T16:54:38.657Z,5.50
2023-05-21T16:56:43.595Z,5.93
2023-05-21T16:58:48.668Z,6.00
2023-05-21T17:03:01.255Z,5.35
2023-05-21T17:05:06.834Z,5.60
2023-05-21T17:07:11.770Z,5.00
2023-05-21T17:11:23.954Z,4.78
2023-05-21T17:13:31.120Z,5.05
2023-05-21T17:15:36.474Z,4.93
2023-05-21T17:17:41.722Z,5.10
2023-05-21T17:19:49.377Z,5.47
2023-05-21T17:21:54.412Z,5.15
2023-05-21T17:23:59.456Z,5.30
2023-05-21T17:28:12.162Z,5.13
2023-05-21T17:30:17.131Z,4.90
2023-05-21T17:34:29.702Z,4.90
2023-05-21T17:36:37.411Z,6.07
2023-05-21T17:38:42.425Z,5.40
2023-05-21T17:40:53.623Z,5.32
2023-05-21T17:42:58.887Z,5.40
2023-05-21T17:45:03.900Z,6.15
2023-05-21T17:49:14.649Z,4.97
2023-05-21T17:53:26.920Z,5.35
2023-05-21T17:55:35.354Z,5.13
2023-05-21T17:57:40.543Z,5.70
2023-05-21T17:59:45.785Z,5.00
2023-05-21T18:01:50.935Z,5.93
2023-05-21T18:03:58.249Z,5.35
2023-05-21T18:06:03.366Z,5.15
2023-05-21T18:08:10.282Z,5.50
2023-05-21T18:10:18.241Z,5.68
2023-05-21T18:12:23.221Z,5.43
2023-05-21T18:16:33.191Z,5.75
2023-05-21T18:18:38.161Z,5.28
2023-05-21T18:22:47.845Z,6.32
2023-05-21T18:27:00.102Z,5.70
2023-05-21T18:29:05.207Z,5.25
2023-05-21T18:31:10.143Z,5.50
2023-05-21T18:35:20.776Z,5.45
2023-05-21T18:37:25.923Z,5.55
2023-05-21T18:39:30.927Z,6.07
2023-05-21T18:43:47.586Z,5.97
2023-05-21T18:46:18.478Z,5.70
2023-05-21T18:48:23.498Z,5.60
2023-05-21T18:52:33.181Z,6.75
2023-05-21T18:54:38.256Z,6.13
2023-05-21T18:58:50.610Z,5.97
2023-05-21T19:00:58.141Z,5.85
2023-05-21T19:03:03.209Z,6.35
2023-05-21T19:05:09.512Z,6.50
2023-05-21T19:07:16.047Z,6.53
2023-05-21T19:09:21.065Z,6.38
2023-05-21T19:13:36.883Z,10.38
2023-05-21T19:15:47.218Z,8.18
2023-05-21T19:17:54.469Z,7.38
2023-05-21T19:19:59.557Z,7.72
2023-05-21T19:24:10.372Z,8.05
2023-05-21T19:26:15.447Z,8.65
2023-05-21T19:30:25.184Z,7.60
2023-05-21T19:34:37.525Z,8.00
2023-05-21T19:39:01.089Z,7.88
2023-05-21T19:41:06.361Z,7.70
2023-05-21T19:43:11.417Z,6.72
2023-05-21T19:47:22.306Z,7.10
2023-05-21T19:51:34.692Z,6.80
2023-05-21T19:55:44.862Z,6.85
2023-05-21T19:57:50.170Z,7.15
2023-05-21T19:59:55.206Z,6.32
2023-05-21T20:04:05.326Z,7.43
2023-05-21T20:06:12.952Z,7.00
2023-05-21T20:08:22.115Z,7.07
2023-05-21T20:10:28.336Z,6.43
2023-05-21T20:12:33.255Z,7.22
2023-05-21T20:14:38.302Z,7.57
2023-05-21T20:18:49.192Z,7.10
2023-05-21T20:20:55.195Z,7.53
2023-05-21T20:23:03.409Z,7.00
2023-05-21T20:25:10.763Z,8.18
2023-05-21T20:27:19.614Z,7.80
2023-05-21T20:29:24.643Z,7.32
2023-05-21T20:31:29.791Z,7.32
2023-05-21T20:33:39.369Z,7.45
2023-05-21T20:35:45.094Z,7.25
2023-05-21T20:40:07.606Z,8.13
2023-05-21T20:42:22.835Z,7.85
2023-05-21T20:44:29.535Z,7.78
2023-05-21T20:47:11.906Z,9.43
2023-05-21T20:49:28.611Z,9.80
2023-05-21T20:51:46.856Z,9.05
2023-05-21T20:53:51.821Z,8.77
2023-05-21T20:58:07.840Z,9.50
2023-05-21T21:00:13.982Z,12.52
2023-05-21T21:02:20.894Z,10.63
2023-05-21T21:04:25.900Z,9.80
2023-05-21T21:10:42.981Z,9.80
2023-05-21T21:12:50.845Z,9.75
2023-05-21T21:14:56.367Z,9.02
2023-05-21T21:17:01.837Z,9.93
2023-05-21T21:19:06.857Z,10.05
2023-05-21T21:23:16.712Z,8.93
2023-05-21T21:25:23.023Z,9.70
2023-05-21T21:27:28.049Z,8.90
2023-05-21T21:31:41.975Z,9.45
2023-05-21T21:35:54.500Z,9.50
2023-05-21T21:37:59.581Z,9.82
2023-05-21T21:40:04.704Z,9.30
2023-05-21T21:42:10.161Z,8.77
2023-05-21T21:44:15.175Z,8.10
2023-05-21T21:46:27.807Z,9.13
2023-05-21T21:48:33.140Z,8.13
2023-05-21T21:50:38.762Z,9.43
2023-05-21T21:53:14.922Z,8.63
2023-05-21T21:55:43.004Z,8.77
2023-05-21T21:58:10.219Z,7.57
2023-05-21T22:00:28.966Z,8.73
2023-05-21T22:02:43.078Z,8.43
2023-05-21T22:04:51.209Z,8.50
2023-05-21T22:06:56.730Z,8.20
2023-05-21T22:09:08.896Z,9.27
2023-05-21T22:11:14.130Z,9.57
2023-05-21T22:13:21.576Z,9.30
2023-05-21T22:16:11.978Z,8.18
2023-05-21T22:18:42.108Z,9.07
2023-05-21T22:20:47.116Z,9.40
2023-05-21T22:22:54.795Z,8.10
2023-05-21T22:25:27.074Z,7.68
2023-05-21T22:27:32.071Z,9.45
2023-05-21T22:29:37.033Z,9.50
2023-05-21T22:34:14.857Z,8.27
2023-05-21T22:36:27.045Z,9.05
2023-05-21T22:38:40.941Z,8.85
2023-05-21T22:40:46.280Z,9.00
2023-05-21T22:42:51.322Z,8.93
2023-05-21T22:47:03.827Z,7.82
2023-05-21T22:49:11.619Z,8.75
2023-05-21T22:51:17.032Z,8.40
2023-05-21T22:53:22.105Z,9.15
2023-05-21T22:57:31.994Z,8.35
2023-05-21T22:59:37.350Z,10.05
2023-05-21T23:01:42.392Z,9.75
2023-05-21T23:05:54.927Z,9.50
2023-05-21T23:07:59.879Z,9.50
2023-05-21T23:10:04.890Z,9.45
2023-05-21T23:12:10.848Z,8.85
2023-05-21T23:14:15.876Z,8.55
2023-05-21T23:16:22.823Z,8.73
2023-05-21T23:18:27.862Z,8.88
2023-05-21T23:22:43.982Z,9.23
2023-05-21T23:24:49.023Z,9.77
2023-05-21T23:29:06.400Z,9.38
2023-05-21T23:31:11.554Z,9.63
2023-05-21T23:33:16.693Z,9.55
2023-05-21T23:37:26.434Z,9.77
2023-05-21T23:39:34.008Z,9.43
2023-05-21T23:41:38.937Z,9.45
2023-05-21T23:45:48.801Z,9.30
2023-05-21T23:47:53.879Z,9.70
2023-05-21T23:49:59.738Z,9.60
2023-05-21T23:52:04.820Z,9.70
2023-05-21T23:56:17.177Z,8.57
2023-05-21T23:58:22.149Z,9.00
